Omaha, Nebraska
Current Conditions -  °F | °C
As of 6:52 PM on Friday 24 Oct 2014 (Local Time) from KOMA Reporting Station
Broken Clouds Broken Clouds  
Wind Chill: 69°   Ceiling: 25000
Heat Index: 69°   Visibility: 10mi
Dew Point: 56°   Wind: 0mph
Humidity: 63%   Direction: NA
Pressure: 29.93"   Gusts: NA
Location:  41.26°N, 95.94°W
Report Text: KOMA 242352Z 00000KT 10SM BKN250 21/13 A2993 RMK AO2 SLP132 T02060133 10244 20200 53011
Loading
Personal Weather Stations






























Interactive Weather Map
Tropical Storm Tracking
New forecast layout! Learn more

10-Day Weather Forecast

Advertisements
Track Severe Weather on mobile